sensor_id;sensor_type;location;lat;lon;timestamp;temperature;humidity
7658;DHT22;8462;53.156;8.220;2024-01-07T00:02:01;2.00;99.90
7658;DHT22;8462;53.156;8.220;2024-01-07T00:04:28;2.00;99.90
7658;DHT22;8462;53.156;8.220;2024-01-07T00:06:55;1.90;99.90
7658;DHT22;8462;53.156;8.220;2024-01-07T00:09:23;1.90;99.90
7658;DHT22;8462;53.156;8.220;2024-01-07T00:11:50;1.80;99.90
7658;DHT22;8462;53.156;8.220;2024-01-07T00:14:17;1.70;99.90
7658;DHT22;8462;53.156;8.220;2024-01-07T00:16:44;1.60;99.90
7658;DHT22;8462;53.156;8.220;2024-01-07T00:19:13;1.60;99.90
7658;DHT22;8462;53.156;8.220;2024-01-07T00:21:40;1.60;99.90
7658;DHT22;8462;53.156;8.220;2024-01-07T00:24:09;1.60;99.90
7658;DHT22;8462;53.156;8.220;2024-01-07T00:26:36;1.60;99.90
7658;DHT22;8462;53.156;8.220;2024-01-07T00:29:03;1.60;99.90
7658;DHT22;8462;53.156;8.220;2024-01-07T00:31:30;1.60;99.90
7658;DHT22;8462;53.156;8.220;2024-01-07T00:33:57;1.70;99.90
7658;DHT22;8462;53.156;8.220;2024-01-07T00:36:26;1.70;99.90
7658;DHT22;8462;53.156;8.220;2024-01-07T00:38:53;1.60;99.90
7658;DHT22;8462;53.156;8.220;2024-01-07T00:41:20;1.60;99.90
7658;DHT22;8462;53.156;8.220;2024-01-07T00:43:52;1.60;99.90
7658;DHT22;8462;53.156;8.220;2024-01-07T00:46:20;1.70;99.90
7658;DHT22;8462;53.156;8.220;2024-01-07T00:48:47;1.60;99.90
7658;DHT22;8462;53.156;8.220;2024-01-07T00:51:14;1.60;99.90
7658;DHT22;8462;53.156;8.220;2024-01-07T00:53:42;1.50;99.90
7658;DHT22;8462;53.156;8.220;2024-01-07T00:56:10;1.50;99.90
7658;DHT22;8462;53.156;8.220;2024-01-07T00:58:38;1.50;99.90
7658;DHT22;8462;53.156;8.220;2024-01-07T01:01:05;1.50;99.90
7658;DHT22;8462;53.156;8.220;2024-01-07T01:03:36;1.40;99.90
7658;DHT22;8462;53.156;8.220;2024-01-07T01:06:03;1.40;99.90
7658;DHT22;8462;53.156;8.220;2024-01-07T01:08:30;1.40;99.90
7658;DHT22;8462;53.156;8.220;2024-01-07T01:10:59;1.40;99.90
7658;DHT22;8462;53.156;8.220;2024-01-07T01:13:27;1.40;99.90
7658;DHT22;8462;53.156;8.220;2024-01-07T01:15:54;1.40;99.90
7658;DHT22;8462;53.156;8.220;2024-01-07T01:18:22;1.40;99.90
7658;DHT22;8462;53.156;8.220;2024-01-07T01:20:49;1.40;99.90
7658;DHT22;8462;53.156;8.220;2024-01-07T01:23:16;1.40;99.90
7658;DHT22;8462;53.156;8.220;2024-01-07T01:25:43;1.30;99.90
7658;DHT22;8462;53.156;8.220;2024-01-07T01:28:12;1.30;99.90
7658;DHT22;8462;53.156;8.220;2024-01-07T01:30:39;1.30;99.90
7658;DHT22;8462;53.156;8.220;2024-01-07T01:33:06;1.20;99.90
7658;DHT22;8462;53.156;8.220;2024-01-07T01:35:34;1.20;99.90
7658;DHT22;8462;53.156;8.220;2024-01-07T01:38:01;1.20;99.90
7658;DHT22;8462;53.156;8.220;2024-01-07T01:40:27;1.30;99.90
7658;DHT22;8462;53.156;8.220;2024-01-07T01:42:55;1.30;99.90
7658;DHT22;8462;53.156;8.220;2024-01-07T01:45:23;1.20;99.90
7658;DHT22;8462;53.156;8.220;2024-01-07T01:47:50;1.30;99.90
7658;DHT22;8462;53.156;8.220;2024-01-07T01:50:17;1.30;99.90
7658;DHT22;8462;53.156;8.220;2024-01-07T01:52:45;1.40;99.90
7658;DHT22;8462;53.156;8.220;2024-01-07T01:55:12;1.40;99.90
7658;DHT22;8462;53.156;8.220;2024-01-07T01:57:40;1.40;99.90
7658;DHT22;8462;53.156;8.220;2024-01-07T02:00:08;1.40;99.90
7658;DHT22;8462;53.156;8.220;2024-01-07T02:02:37;1.40;99.90
7658;DHT22;8462;53.156;8.220;2024-01-07T02:05:04;1.50;99.90
7658;DHT22;8462;53.156;8.220;2024-01-07T02:07:31;1.50;99.90
7658;DHT22;8462;53.156;8.220;2024-01-07T02:09:59;1.40;99.90
7658;DHT22;8462;53.156;8.220;2024-01-07T02:12:26;1.40;99.90
7658;DHT22;8462;53.156;8.220;2024-01-07T02:14:53;1.40;99.90
7658;DHT22;8462;53.156;8.220;2024-01-07T02:17:21;1.40;99.90
7658;DHT22;8462;53.156;8.220;2024-01-07T02:19:49;1.30;99.90
7658;DHT22;8462;53.156;8.220;2024-01-07T02:22:16;1.30;99.90
7658;DHT22;8462;53.156;8.220;2024-01-07T02:24:46;1.20;99.90
7658;DHT22;8462;53.156;8.220;2024-01-07T02:27:13;1.20;99.90
7658;DHT22;8462;53.156;8.220;2024-01-07T02:29:40;1.20;99.90
7658;DHT22;8462;53.156;8.220;2024-01-07T02:32:07;1.10;99.90
7658;DHT22;8462;53.156;8.220;2024-01-07T02:34:34;1.20;99.90
7658;DHT22;8462;53.156;8.220;2024-01-07T02:37:01;1.20;99.90
7658;DHT22;8462;53.156;8.220;2024-01-07T02:39:28;1.30;99.90
7658;DHT22;8462;53.156;8.220;2024-01-07T02:41:57;1.30;99.90
7658;DHT22;8462;53.156;8.220;2024-01-07T02:44:24;1.20;99.90
7658;DHT22;8462;53.156;8.220;2024-01-07T02:46:52;1.20;99.90
7658;DHT22;8462;53.156;8.220;2024-01-07T02:49:19;1.10;99.90
7658;DHT22;8462;53.156;8.220;2024-01-07T02:51:47;1.10;99.90
7658;DHT22;8462;53.156;8.220;2024-01-07T02:54:16;1.20;99.90
7658;DHT22;8462;53.156;8.220;2024-01-07T02:56:43;1.10;99.90
7658;DHT22;8462;53.156;8.220;2024-01-07T02:59:12;1.10;99.90
7658;DHT22;8462;53.156;8.220;2024-01-07T03:01:39;1.10;99.90
7658;DHT22;8462;53.156;8.220;2024-01-07T03:04:09;1.10;99.90
7658;DHT22;8462;53.156;8.220;2024-01-07T03:06:37;1.10;99.90
7658;DHT22;8462;53.156;8.220;2024-01-07T03:09:05;1.10;99.90
7658;DHT22;8462;53.156;8.220;2024-01-07T03:11:32;1.20;99.90
7658;DHT22;8462;53.156;8.220;2024-01-07T03:13:59;1.20;99.90
7658;DHT22;8462;53.156;8.220;2024-01-07T03:16:28;1.20;99.90
7658;DHT22;8462;53.156;8.220;2024-01-07T03:18:56;1.20;99.90
7658;DHT22;8462;53.156;8.220;2024-01-07T03:21:23;1.20;99.90
7658;DHT22;8462;53.156;8.220;2024-01-07T03:23:51;1.20;99.90
7658;DHT22;8462;53.156;8.220;2024-01-07T03:26:19;1.20;99.90
7658;DHT22;8462;53.156;8.220;2024-01-07T03:28:46;1.20;99.90
7658;DHT22;8462;53.156;8.220;2024-01-07T03:31:15;1.20;99.90
7658;DHT22;8462;53.156;8.220;2024-01-07T03:33:45;1.20;99.90
7658;DHT22;8462;53.156;8.220;2024-01-07T03:36:13;1.30;99.90
7658;DHT22;8462;53.156;8.220;2024-01-07T03:38:41;1.30;99.90
7658;DHT22;8462;53.156;8.220;2024-01-07T03:41:08;1.30;99.90
7658;DHT22;8462;53.156;8.220;2024-01-07T03:43:37;1.30;99.90
7658;DHT22;8462;53.156;8.220;2024-01-07T03:46:04;1.30;99.90
7658;DHT22;8462;53.156;8.220;2024-01-07T03:48:32;1.40;99.90
7658;DHT22;8462;53.156;8.220;2024-01-07T03:51:00;1.40;99.90
7658;DHT22;8462;53.156;8.220;2024-01-07T03:53:27;1.40;99.90
7658;DHT22;8462;53.156;8.220;2024-01-07T03:55:54;1.40;99.90
7658;DHT22;8462;53.156;8.220;2024-01-07T03:58:21;1.40;99.90
7658;DHT22;8462;53.156;8.220;2024-01-07T04:00:48;1.30;99.90
7658;DHT22;8462;53.156;8.220;2024-01-07T04:03:15;1.30;99.90
7658;DHT22;8462;53.156;8.220;2024-01-07T04:05:46;1.40;99.90
7658;DHT22;8462;53.156;8.220;2024-01-07T04:08:15;1.40;99.90
7658;DHT22;8462;53.156;8.220;2024-01-07T04:10:42;1.40;99.90
7658;DHT22;8462;53.156;8.220;2024-01-07T04:13:09;1.40;99.90
7658;DHT22;8462;53.156;8.220;2024-01-07T04:15:36;1.40;99.90
7658;DHT22;8462;53.156;8.220;2024-01-07T04:18:04;1.40;99.90
7658;DHT22;8462;53.156;8.220;2024-01-07T04:20:31;1.50;99.90
7658;DHT22;8462;53.156;8.220;2024-01-07T04:22:58;1.50;99.90
7658;DHT22;8462;53.156;8.220;2024-01-07T04:25:26;1.40;99.90
7658;DHT22;8462;53.156;8.220;2024-01-07T04:27:53;1.50;99.90
7658;DHT22;8462;53.156;8.220;2024-01-07T04:30:20;1.50;99.90
7658;DHT22;8462;53.156;8.220;2024-01-07T04:32:48;1.50;99.90
7658;DHT22;8462;53.156;8.220;2024-01-07T04:35:15;1.50;99.90
7658;DHT22;8462;53.156;8.220;2024-01-07T04:37:42;1.40;99.90
7658;DHT22;8462;53.156;8.220;2024-01-07T04:40:10;1.50;99.90
7658;DHT22;8462;53.156;8.220;2024-01-07T04:42:38;1.50;99.90
7658;DHT22;8462;53.156;8.220;2024-01-07T04:45:06;1.50;99.90
7658;DHT22;8462;53.156;8.220;2024-01-07T04:47:33;1.50;99.90
7658;DHT22;8462;53.156;8.220;2024-01-07T04:50:01;1.50;99.90
7658;DHT22;8462;53.156;8.220;2024-01-07T04:52:28;1.40;99.90
7658;DHT22;8462;53.156;8.220;2024-01-07T04:54:56;1.40;99.90
7658;DHT22;8462;53.156;8.220;2024-01-07T04:57:24;1.40;99.90
7658;DHT22;8462;53.156;8.220;2024-01-07T04:59:52;1.50;99.90
7658;DHT22;8462;53.156;8.220;2024-01-07T05:02:19;1.40;99.90
7658;DHT22;8462;53.156;8.220;2024-01-07T05:04:46;1.40;99.90
7658;DHT22;8462;53.156;8.220;2024-01-07T05:07:15;1.40;99.90
7658;DHT22;8462;53.156;8.220;2024-01-07T05:09:42;1.40;99.90
7658;DHT22;8462;53.156;8.220;2024-01-07T05:12:08;1.30;99.90
7658;DHT22;8462;53.156;8.220;2024-01-07T05:14:36;1.30;99.90
7658;DHT22;8462;53.156;8.220;2024-01-07T05:17:04;1.30;99.90
7658;DHT22;8462;53.156;8.220;2024-01-07T05:19:31;1.20;99.90
7658;DHT22;8462;53.156;8.220;2024-01-07T05:21:59;1.20;99.90
7658;DHT22;8462;53.156;8.220;2024-01-07T05:24:26;1.10;99.90
7658;DHT22;8462;53.156;8.220;2024-01-07T05:26:53;1.10;99.90
7658;DHT22;8462;53.156;8.220;2024-01-07T05:29:20;1.00;99.90
7658;DHT22;8462;53.156;8.220;2024-01-07T05:31:47;1.00;99.90
7658;DHT22;8462;53.156;8.220;2024-01-07T05:34:16;1.00;99.90
7658;DHT22;8462;53.156;8.220;2024-01-07T05:36:43;1.00;99.90
7658;DHT22;8462;53.156;8.220;2024-01-07T05:39:10;1.00;99.90
7658;DHT22;8462;53.156;8.220;2024-01-07T05:41:40;1.00;99.90
7658;DHT22;8462;53.156;8.220;2024-01-07T05:44:07;0.90;99.90
7658;DHT22;8462;53.156;8.220;2024-01-07T05:46:34;1.00;99.90
7658;DHT22;8462;53.156;8.220;2024-01-07T05:49:09;1.00;99.90
7658;DHT22;8462;53.156;8.220;2024-01-07T05:51:40;1.00;99.90
7658;DHT22;8462;53.156;8.220;2024-01-07T05:54:07;1.00;99.90
7658;DHT22;8462;53.156;8.220;2024-01-07T05:56:38;0.90;99.90
7658;DHT22;8462;53.156;8.220;2024-01-07T05:59:08;0.90;99.90
7658;DHT22;8462;53.156;8.220;2024-01-07T06:01:35;0.90;99.90
7658;DHT22;8462;53.156;8.220;2024-01-07T06:04:03;0.80;99.90
7658;DHT22;8462;53.156;8.220;2024-01-07T06:06:31;0.90;99.90
7658;DHT22;8462;53.156;8.220;2024-01-07T06:09:00;0.80;99.90
7658;DHT22;8462;53.156;8.220;2024-01-07T06:11:28;0.80;99.90
7658;DHT22;8462;53.156;8.220;2024-01-07T06:13:55;0.80;99.90
7658;DHT22;8462;53.156;8.220;2024-01-07T06:16:22;0.80;99.90
7658;DHT22;8462;53.156;8.220;2024-01-07T06:18:50;0.80;99.90
7658;DHT22;8462;53.156;8.220;2024-01-07T06:21:17;0.90;99.90
7658;DHT22;8462;53.156;8.220;2024-01-07T06:23:45;0.90;99.90
7658;DHT22;8462;53.156;8.220;2024-01-07T06:26:15;1.00;99.90
7658;DHT22;8462;53.156;8.220;2024-01-07T06:28:42;1.00;99.90
7658;DHT22;8462;53.156;8.220;2024-01-07T06:31:09;1.00;99.90
7658;DHT22;8462;53.156;8.220;2024-01-07T06:33:36;1.10;99.90
7658;DHT22;8462;53.156;8.220;2024-01-07T06:36:03;1.20;99.90
7658;DHT22;8462;53.156;8.220;2024-01-07T06:38:30;1.20;99.90
7658;DHT22;8462;53.156;8.220;2024-01-07T06:40:57;1.20;99.90
7658;DHT22;8462;53.156;8.220;2024-01-07T06:43:28;1.30;99.90
7658;DHT22;8462;53.156;8.220;2024-01-07T06:45:56;1.30;99.90
7658;DHT22;8462;53.156;8.220;2024-01-07T06:48:23;1.40;99.90
7658;DHT22;8462;53.156;8.220;2024-01-07T06:50:50;1.40;99.90
7658;DHT22;8462;53.156;8.220;2024-01-07T06:53:18;1.40;99.90
7658;DHT22;8462;53.156;8.220;2024-01-07T06:55:45;1.40;99.90
7658;DHT22;8462;53.156;8.220;2024-01-07T06:58:14;1.50;99.90
7658;DHT22;8462;53.156;8.220;2024-01-07T07:00:43;1.50;99.90
7658;DHT22;8462;53.156;8.220;2024-01-07T07:03:10;1.50;99.90
7658;DHT22;8462;53.156;8.220;2024-01-07T07:05:37;1.50;99.90
7658;DHT22;8462;53.156;8.220;2024-01-07T07:08:05;1.50;99.90
7658;DHT22;8462;53.156;8.220;2024-01-07T07:10:32;1.50;99.90
7658;DHT22;8462;53.156;8.220;2024-01-07T07:12:59;1.50;99.90
7658;DHT22;8462;53.156;8.220;2024-01-07T07:15:26;1.50;99.90
7658;DHT22;8462;53.156;8.220;2024-01-07T07:17:55;1.50;99.90
7658;DHT22;8462;53.156;8.220;2024-01-07T07:20:24;1.50;99.90
7658;DHT22;8462;53.156;8.220;2024-01-07T07:22:51;1.50;99.90
7658;DHT22;8462;53.156;8.220;2024-01-07T07:25:18;1.50;99.90
7658;DHT22;8462;53.156;8.220;2024-01-07T07:27:45;1.50;99.90
7658;DHT22;8462;53.156;8.220;2024-01-07T07:30:12;1.50;99.90
7658;DHT22;8462;53.156;8.220;2024-01-07T07:32:40;1.50;99.90
7658;DHT22;8462;53.156;8.220;2024-01-07T07:35:09;1.60;99.90
7658;DHT22;8462;53.156;8.220;2024-01-07T07:37:36;1.60;99.90
7658;DHT22;8462;53.156;8.220;2024-01-07T07:40:05;1.60;99.90
7658;DHT22;8462;53.156;8.220;2024-01-07T07:42:32;1.60;99.90
7658;DHT22;8462;53.156;8.220;2024-01-07T07:44:59;1.70;99.90
7658;DHT22;8462;53.156;8.220;2024-01-07T07:47:27;1.70;99.90
7658;DHT22;8462;53.156;8.220;2024-01-07T07:49:54;1.70;99.90
7658;DHT22;8462;53.156;8.220;2024-01-07T07:52:22;1.70;99.90
7658;DHT22;8462;53.156;8.220;2024-01-07T07:54:52;1.80;99.90
7658;DHT22;8462;53.156;8.220;2024-01-07T07:57:21;1.80;99.90
7658;DHT22;8462;53.156;8.220;2024-01-07T07:59:51;1.90;99.90
7658;DHT22;8462;53.156;8.220;2024-01-07T08:02:18;1.90;99.70
7658;DHT22;8462;53.156;8.220;2024-01-07T08:04:46;1.90;99.90
7658;DHT22;8462;53.156;8.220;2024-01-07T08:07:14;2.00;99.90
7658;DHT22;8462;53.156;8.220;2024-01-07T08:09:42;2.00;99.90
7658;DHT22;8462;53.156;8.220;2024-01-07T08:12:10;2.00;99.90
7658;DHT22;8462;53.156;8.220;2024-01-07T08:14:38;2.00;99.90
7658;DHT22;8462;53.156;8.220;2024-01-07T08:17:06;2.00;99.90
7658;DHT22;8462;53.156;8.220;2024-01-07T08:19:33;2.00;99.90
7658;DHT22;8462;53.156;8.220;2024-01-07T08:22:03;2.10;99.90
7658;DHT22;8462;53.156;8.220;2024-01-07T08:24:30;2.10;99.90
7658;DHT22;8462;53.156;8.220;2024-01-07T08:26:58;2.20;99.90
7658;DHT22;8462;53.156;8.220;2024-01-07T08:29:25;2.30;99.90
7658;DHT22;8462;53.156;8.220;2024-01-07T08:31:52;2.30;99.90
7658;DHT22;8462;53.156;8.220;2024-01-07T08:34:19;2.30;99.90
7658;DHT22;8462;53.156;8.220;2024-01-07T08:36:47;2.30;99.90
7658;DHT22;8462;53.156;8.220;2024-01-07T08:39:15;2.30;99.90
7658;DHT22;8462;53.156;8.220;2024-01-07T08:41:42;2.40;99.90
7658;DHT22;8462;53.156;8.220;2024-01-07T08:44:11;2.50;99.90
7658;DHT22;8462;53.156;8.220;2024-01-07T08:46:38;2.50;99.90
7658;DHT22;8462;53.156;8.220;2024-01-07T08:49:06;2.60;99.90
7658;DHT22;8462;53.156;8.220;2024-01-07T08:51:33;2.60;99.90
7658;DHT22;8462;53.156;8.220;2024-01-07T08:54:00;2.70;99.60
7658;DHT22;8462;53.156;8.220;2024-01-07T08:56:27;2.80;99.70
7658;DHT22;8462;53.156;8.220;2024-01-07T08:58:54;2.90;98.90
7658;DHT22;8462;53.156;8.220;2024-01-07T09:01:22;2.90;98.90
7658;DHT22;8462;53.156;8.220;2024-01-07T09:03:50;2.80;98.90
7658;DHT22;8462;53.156;8.220;2024-01-07T09:06:17;2.80;99.10
7658;DHT22;8462;53.156;8.220;2024-01-07T09:08:44;2.80;98.80
7658;DHT22;8462;53.156;8.220;2024-01-07T09:11:11;2.80;99.10
7658;DHT22;8462;53.156;8.220;2024-01-07T09:13:39;2.80;99.10
7658;DHT22;8462;53.156;8.220;2024-01-07T09:16:06;2.70;99.60
7658;DHT22;8462;53.156;8.220;2024-01-07T09:18:36;2.70;99.60
7658;DHT22;8462;53.156;8.220;2024-01-07T09:21:03;2.70;99.90
7658;DHT22;8462;53.156;8.220;2024-01-07T09:23:32;2.80;99.90
7658;DHT22;8462;53.156;8.220;2024-01-07T09:26:01;2.90;99.90
7658;DHT22;8462;53.156;8.220;2024-01-07T09:28:28;3.00;99.90
7658;DHT22;8462;53.156;8.220;2024-01-07T09:30:55;3.10;99.90
7658;DHT22;8462;53.156;8.220;2024-01-07T09:33:22;3.10;99.90
7658;DHT22;8462;53.156;8.220;2024-01-07T09:35:51;3.10;99.90
7658;DHT22;8462;53.156;8.220;2024-01-07T09:38:19;3.10;99.90
7658;DHT22;8462;53.156;8.220;2024-01-07T09:40:46;3.10;99.90
7658;DHT22;8462;53.156;8.220;2024-01-07T09:43:14;3.20;99.90
7658;DHT22;8462;53.156;8.220;2024-01-07T09:45:42;3.20;99.90
7658;DHT22;8462;53.156;8.220;2024-01-07T09:48:12;3.20;99.90
7658;DHT22;8462;53.156;8.220;2024-01-07T09:50:40;3.30;99.90
7658;DHT22;8462;53.156;8.220;2024-01-07T09:53:14;3.30;99.90
7658;DHT22;8462;53.156;8.220;2024-01-07T09:55:50;3.40;99.90
7658;DHT22;8462;53.156;8.220;2024-01-07T09:58:19;3.40;99.90
7658;DHT22;8462;53.156;8.220;2024-01-07T10:00:47;3.50;99.90
7658;DHT22;8462;53.156;8.220;2024-01-07T10:03:14;3.50;99.90
7658;DHT22;8462;53.156;8.220;2024-01-07T10:05:43;3.60;99.90
7658;DHT22;8462;53.156;8.220;2024-01-07T10:08:11;3.60;99.90
7658;DHT22;8462;53.156;8.220;2024-01-07T10:10:38;3.50;99.90
7658;DHT22;8462;53.156;8.220;2024-01-07T10:13:08;3.50;99.90
7658;DHT22;8462;53.156;8.220;2024-01-07T10:15:35;3.40;99.90
7658;DHT22;8462;53.156;8.220;2024-01-07T10:18:04;3.30;99.90
7658;DHT22;8462;53.156;8.220;2024-01-07T10:20:32;3.30;99.90
7658;DHT22;8462;53.156;8.220;2024-01-07T10:23:01;3.20;99.90
7658;DHT22;8462;53.156;8.220;2024-01-07T10:25:30;3.10;99.90
7658;DHT22;8462;53.156;8.220;2024-01-07T10:27:59;3.10;99.90
7658;DHT22;8462;53.156;8.220;2024-01-07T10:30:27;3.00;99.90
7658;DHT22;8462;53.156;8.220;2024-01-07T10:33:00;3.10;99.90
7658;DHT22;8462;53.156;8.220;2024-01-07T10:35:29;3.10;99.90
7658;DHT22;8462;53.156;8.220;2024-01-07T10:37:59;3.10;99.90
7658;DHT22;8462;53.156;8.220;2024-01-07T10:40:27;3.00;99.90
7658;DHT22;8462;53.156;8.220;2024-01-07T10:42:56;3.00;99.90
7658;DHT22;8462;53.156;8.220;2024-01-07T10:45:24;3.00;99.90
7658;DHT22;8462;53.156;8.220;2024-01-07T10:47:55;3.00;99.90
7658;DHT22;8462;53.156;8.220;2024-01-07T10:50:27;3.00;99.90
7658;DHT22;8462;53.156;8.220;2024-01-07T10:53:03;3.00;99.90
7658;DHT22;8462;53.156;8.220;2024-01-07T10:55:34;2.90;99.90
7658;DHT22;8462;53.156;8.220;2024-01-07T10:58:03;2.90;99.90
7658;DHT22;8462;53.156;8.220;2024-01-07T11:00:31;2.80;99.90
7658;DHT22;8462;53.156;8.220;2024-01-07T11:03:14;2.70;99.90
7658;DHT22;8462;53.156;8.220;2024-01-07T11:05:49;2.70;99.90
7658;DHT22;8462;53.156;8.220;2024-01-07T11:08:21;2.70;99.90
7658;DHT22;8462;53.156;8.220;2024-01-07T11:10:55;2.70;99.90
7658;DHT22;8462;53.156;8.220;2024-01-07T11:13:36;2.80;99.90
7658;DHT22;8462;53.156;8.220;2024-01-07T11:16:05;2.80;99.90
7658;DHT22;8462;53.156;8.220;2024-01-07T11:18:45;2.80;99.90
7658;DHT22;8462;53.156;8.220;2024-01-07T11:21:20;2.80;99.90
7658;DHT22;8462;53.156;8.220;2024-01-07T11:23:50;2.80;99.90
7658;DHT22;8462;53.156;8.220;2024-01-07T11:26:19;2.80;99.90
7658;DHT22;8462;53.156;8.220;2024-01-07T11:28:50;2.80;99.90
7658;DHT22;8462;53.156;8.220;2024-01-07T11:31:18;2.80;99.90
7658;DHT22;8462;53.156;8.220;2024-01-07T11:33:46;2.80;99.90
7658;DHT22;8462;53.156;8.220;2024-01-07T11:36:14;2.80;99.90
7658;DHT22;8462;53.156;8.220;2024-01-07T11:38:42;2.80;99.90
7658;DHT22;8462;53.156;8.220;2024-01-07T11:41:11;2.80;99.90
7658;DHT22;8462;53.156;8.220;2024-01-07T11:43:52;2.80;99.90
7658;DHT22;8462;53.156;8.220;2024-01-07T11:46:22;2.80;99.90
7658;DHT22;8462;53.156;8.220;2024-01-07T11:48:50;2.70;99.90
7658;DHT22;8462;53.156;8.220;2024-01-07T11:51:17;2.80;99.90
7658;DHT22;8462;53.156;8.220;2024-01-07T11:53:46;2.80;99.90
7658;DHT22;8462;53.156;8.220;2024-01-07T11:56:14;2.80;99.90
7658;DHT22;8462;53.156;8.220;2024-01-07T11:58:41;2.80;99.90
7658;DHT22;8462;53.156;8.220;2024-01-07T12:01:10;2.90;99.90
7658;DHT22;8462;53.156;8.220;2024-01-07T12:03:37;2.90;99.90
7658;DHT22;8462;53.156;8.220;2024-01-07T12:06:09;2.90;99.90
7658;DHT22;8462;53.156;8.220;2024-01-07T12:08:39;2.80;99.90
7658;DHT22;8462;53.156;8.220;2024-01-07T12:11:06;2.80;99.90
7658;DHT22;8462;53.156;8.220;2024-01-07T12:13:38;2.80;99.90
7658;DHT22;8462;53.156;8.220;2024-01-07T12:16:07;2.90;99.90
7658;DHT22;8462;53.156;8.220;2024-01-07T12:18:38;2.90;99.90
7658;DHT22;8462;53.156;8.220;2024-01-07T12:21:06;3.00;99.90
7658;DHT22;8462;53.156;8.220;2024-01-07T12:23:35;3.00;99.90
7658;DHT22;8462;53.156;8.220;2024-01-07T12:26:10;3.00;99.90
7658;DHT22;8462;53.156;8.220;2024-01-07T12:28:38;3.00;99.90
7658;DHT22;8462;53.156;8.220;2024-01-07T12:31:06;3.00;99.90
7658;DHT22;8462;53.156;8.220;2024-01-07T12:33:33;3.00;99.90
7658;DHT22;8462;53.156;8.220;2024-01-07T12:36:03;3.00;99.90
7658;DHT22;8462;53.156;8.220;2024-01-07T12:38:30;2.90;99.90
7658;DHT22;8462;53.156;8.220;2024-01-07T12:40:57;2.90;99.90
7658;DHT22;8462;53.156;8.220;2024-01-07T12:43:24;2.80;99.90
7658;DHT22;8462;53.156;8.220;2024-01-07T12:45:51;2.70;99.90
7658;DHT22;8462;53.156;8.220;2024-01-07T12:48:20;2.70;99.90
7658;DHT22;8462;53.156;8.220;2024-01-07T12:50:47;2.60;99.90
7658;DHT22;8462;53.156;8.220;2024-01-07T12:53:15;2.60;99.90
7658;DHT22;8462;53.156;8.220;2024-01-07T12:55:44;2.50;99.90
7658;DHT22;8462;53.156;8.220;2024-01-07T12:58:11;2.40;99.90
7658;DHT22;8462;53.156;8.220;2024-01-07T13:00:38;2.40;99.90
7658;DHT22;8462;53.156;8.220;2024-01-07T13:03:06;2.40;99.90
7658;DHT22;8462;53.156;8.220;2024-01-07T13:05:34;2.40;99.90
7658;DHT22;8462;53.156;8.220;2024-01-07T13:08:01;2.40;99.90
7658;DHT22;8462;53.156;8.220;2024-01-07T13:10:30;2.40;99.90
7658;DHT22;8462;53.156;8.220;2024-01-07T13:12:57;2.40;99.90
7658;DHT22;8462;53.156;8.220;2024-01-07T13:15:24;2.40;99.90
7658;DHT22;8462;53.156;8.220;2024-01-07T13:17:51;2.40;99.90
7658;DHT22;8462;53.156;8.220;2024-01-07T13:20:18;2.50;99.90
7658;DHT22;8462;53.156;8.220;2024-01-07T13:22:45;2.50;99.90
7658;DHT22;8462;53.156;8.220;2024-01-07T13:25:13;2.50;99.90
7658;DHT22;8462;53.156;8.220;2024-01-07T13:27:41;2.50;99.90
7658;DHT22;8462;53.156;8.220;2024-01-07T13:30:10;2.50;99.90
7658;DHT22;8462;53.156;8.220;2024-01-07T13:32:37;2.50;99.90
7658;DHT22;8462;53.156;8.220;2024-01-07T13:35:05;2.50;99.90
7658;DHT22;8462;53.156;8.220;2024-01-07T13:37:36;2.50;99.90
7658;DHT22;8462;53.156;8.220;2024-01-07T13:40:03;2.40;99.90
7658;DHT22;8462;53.156;8.220;2024-01-07T13:42:30;2.30;99.90
7658;DHT22;8462;53.156;8.220;2024-01-07T13:44:59;2.30;99.90
7658;DHT22;8462;53.156;8.220;2024-01-07T13:47:26;2.30;99.90
7658;DHT22;8462;53.156;8.220;2024-01-07T13:49:53;2.20;99.90
7658;DHT22;8462;53.156;8.220;2024-01-07T13:52:20;2.20;99.90
7658;DHT22;8462;53.156;8.220;2024-01-07T13:54:47;2.20;99.90
7658;DHT22;8462;53.156;8.220;2024-01-07T13:57:14;2.20;99.90
7658;DHT22;8462;53.156;8.220;2024-01-07T13:59:41;2.20;99.90
7658;DHT22;8462;53.156;8.220;2024-01-07T14:02:10;2.20;99.90
7658;DHT22;8462;53.156;8.220;2024-01-07T14:04:37;2.10;99.90
7658;DHT22;8462;53.156;8.220;2024-01-07T14:07:04;2.10;99.90
7658;DHT22;8462;53.156;8.220;2024-01-07T14:09:32;2.10;99.90
7658;DHT22;8462;53.156;8.220;2024-01-07T14:12:00;2.10;99.90
7658;DHT22;8462;53.156;8.220;2024-01-07T14:14:29;2.10;99.90
7658;DHT22;8462;53.156;8.220;2024-01-07T14:16:56;2.10;99.90
7658;DHT22;8462;53.156;8.220;2024-01-07T14:19:24;2.10;99.90
7658;DHT22;8462;53.156;8.220;2024-01-07T14:21:51;2.00;99.90
7658;DHT22;8462;53.156;8.220;2024-01-07T14:24:19;2.00;99.90
7658;DHT22;8462;53.156;8.220;2024-01-07T14:26:46;2.00;99.90
7658;DHT22;8462;53.156;8.220;2024-01-07T14:29:13;2.00;99.90
7658;DHT22;8462;53.156;8.220;2024-01-07T14:31:40;2.00;99.90
7658;DHT22;8462;53.156;8.220;2024-01-07T14:34:10;2.00;99.90
7658;DHT22;8462;53.156;8.220;2024-01-07T14:36:40;2.00;99.90
7658;DHT22;8462;53.156;8.220;2024-01-07T14:39:08;2.00;99.90
7658;DHT22;8462;53.156;8.220;2024-01-07T14:41:36;1.90;99.90
7658;DHT22;8462;53.156;8.220;2024-01-07T14:44:03;1.90;99.90
7658;DHT22;8462;53.156;8.220;2024-01-07T14:46:30;1.80;99.80
7658;DHT22;8462;53.156;8.220;2024-01-07T14:48:57;1.80;99.90
7658;DHT22;8462;53.156;8.220;2024-01-07T14:51:24;1.70;99.80
7658;DHT22;8462;53.156;8.220;2024-01-07T14:53:54;1.80;99.70
7658;DHT22;8462;53.156;8.220;2024-01-07T14:56:21;1.80;99.50
7658;DHT22;8462;53.156;8.220;2024-01-07T14:58:48;1.70;99.70
7658;DHT22;8462;53.156;8.220;2024-01-07T15:01:16;1.60;99.90
7658;DHT22;8462;53.156;8.220;2024-01-07T15:03:44;1.60;99.90
7658;DHT22;8462;53.156;8.220;2024-01-07T15:06:11;1.60;99.90
7658;DHT22;8462;53.156;8.220;2024-01-07T15:08:40;1.50;99.90
7658;DHT22;8462;53.156;8.220;2024-01-07T15:11:09;1.50;99.90
7658;DHT22;8462;53.156;8.220;2024-01-07T15:13:37;1.50;99.90
7658;DHT22;8462;53.156;8.220;2024-01-07T15:16:06;1.50;99.90
7658;DHT22;8462;53.156;8.220;2024-01-07T15:18:33;1.50;99.90
7658;DHT22;8462;53.156;8.220;2024-01-07T15:21:00;1.40;99.90
7658;DHT22;8462;53.156;8.220;2024-01-07T15:23:29;1.40;99.90
7658;DHT22;8462;53.156;8.220;2024-01-07T15:25:56;1.30;99.90
7658;DHT22;8462;53.156;8.220;2024-01-07T15:28:25;1.20;99.90
7658;DHT22;8462;53.156;8.220;2024-01-07T15:30:52;1.20;99.90
7658;DHT22;8462;53.156;8.220;2024-01-07T15:33:20;1.10;99.90
7658;DHT22;8462;53.156;8.220;2024-01-07T15:35:54;1.00;99.90
7658;DHT22;8462;53.156;8.220;2024-01-07T15:38:21;1.00;99.90
7658;DHT22;8462;53.156;8.220;2024-01-07T15:40:49;1.00;99.90
7658;DHT22;8462;53.156;8.220;2024-01-07T15:43:18;0.90;99.90
7658;DHT22;8462;53.156;8.220;2024-01-07T15:45:46;0.90;99.90
7658;DHT22;8462;53.156;8.220;2024-01-07T15:48:14;0.80;99.90
7658;DHT22;8462;53.156;8.220;2024-01-07T15:50:43;0.80;99.90
7658;DHT22;8462;53.156;8.220;2024-01-07T15:53:10;0.80;99.80
7658;DHT22;8462;53.156;8.220;2024-01-07T15:55:37;0.80;99.50
7658;DHT22;8462;53.156;8.220;2024-01-07T15:58:05;0.70;99.40
7658;DHT22;8462;53.156;8.220;2024-01-07T16:00:32;0.70;99.40
7658;DHT22;8462;53.156;8.220;2024-01-07T16:03:05;0.70;99.30
7658;DHT22;8462;53.156;8.220;2024-01-07T16:05:33;0.70;99.40
7658;DHT22;8462;53.156;8.220;2024-01-07T16:08:01;0.70;99.70
7658;DHT22;8462;53.156;8.220;2024-01-07T16:10:28;0.60;99.30
7658;DHT22;8462;53.156;8.220;2024-01-07T16:12:55;0.60;99.30
7658;DHT22;8462;53.156;8.220;2024-01-07T16:15:23;0.50;99.70
7658;DHT22;8462;53.156;8.220;2024-01-07T16:17:52;0.50;99.50
7658;DHT22;8462;53.156;8.220;2024-01-07T16:20:22;0.50;99.70
7658;DHT22;8462;53.156;8.220;2024-01-07T16:22:49;0.50;99.90